sensor_id;sensor_type;location;lat;lon;timestamp;pressure;altitude;pressure_sealevel;temperature;humidity
72896;BME280;61036;53.224;6.554;2022-10-16T00:01:17;100826.22;;;12.02;100.00
72896;BME280;61036;53.224;6.554;2022-10-16T00:03:44;100834.31;;;12.02;100.00
72896;BME280;61036;53.224;6.554;2022-10-16T00:06:10;100823.66;;;12.01;100.00
72896;BME280;61036;53.224;6.554;2022-10-16T00:08:37;100825.34;;;12.02;100.00
72896;BME280;61036;53.224;6.554;2022-10-16T00:11:09;100821.91;;;12.00;100.00
72896;BME280;61036;53.224;6.554;2022-10-16T00:13:37;100826.84;;;11.95;100.00
72896;BME280;61036;53.224;6.554;2022-10-16T00:16:04;100824.00;;;11.96;100.00
72896;BME280;61036;53.224;6.554;2022-10-16T00:18:29;100834.72;;;11.98;100.00
72896;BME280;61036;53.224;6.554;2022-10-16T00:20:56;100830.16;;;11.98;100.00
72896;BME280;61036;53.224;6.554;2022-10-16T00:23:26;100832.13;;;11.96;100.00
72896;BME280;61036;53.224;6.554;2022-10-16T00:25:59;100831.88;;;11.99;100.00
72896;BME280;61036;53.224;6.554;2022-10-16T00:28:26;100825.72;;;11.97;100.00
72896;BME280;61036;53.224;6.554;2022-10-16T00:30:52;100830.88;;;12.00;100.00
72896;BME280;61036;53.224;6.554;2022-10-16T00:33:17;100819.09;;;12.01;100.00
72896;BME280;61036;53.224;6.554;2022-10-16T00:35:43;100826.56;;;12.09;100.00
72896;BME280;61036;53.224;6.554;2022-10-16T00:38:09;100824.84;;;12.08;100.00
72896;BME280;61036;53.224;6.554;2022-10-16T00:40:35;100821.06;;;12.10;100.00
72896;BME280;61036;53.224;6.554;2022-10-16T00:43:00;100828.81;;;12.04;100.00
72896;BME280;61036;53.224;6.554;2022-10-16T00:45:26;100818.47;;;12.09;100.00
72896;BME280;61036;53.224;6.554;2022-10-16T00:47:54;100819.34;;;12.09;100.00
72896;BME280;61036;53.224;6.554;2022-10-16T00:50:28;100820.31;;;12.08;100.00
72896;BME280;61036;53.224;6.554;2022-10-16T00:52:56;100817.84;;;12.05;100.00
72896;BME280;61036;53.224;6.554;2022-10-16T00:55:23;100818.47;;;12.09;100.00
72896;BME280;61036;53.224;6.554;2022-10-16T00:57:50;100815.75;;;12.09;100.00
72896;BME280;61036;53.224;6.554;2022-10-16T01:00:20;100825.00;;;12.06;100.00
72896;BME280;61036;53.224;6.554;2022-10-16T01:02:58;100817.34;;;12.11;100.00
72896;BME280;61036;53.224;6.554;2022-10-16T01:05:43;100801.53;;;12.07;100.00
72896;BME280;61036;53.224;6.554;2022-10-16T01:14:30;100803.59;;;12.15;100.00
72896;BME280;61036;53.224;6.554;2022-10-16T01:17:01;100810.72;;;12.16;100.00
72896;BME280;61036;53.224;6.554;2022-10-16T01:19:44;100806.28;;;12.15;100.00
72896;BME280;61036;53.224;6.554;2022-10-16T01:22:13;100806.28;;;12.15;100.00
72896;BME280;61036;53.224;6.554;2022-10-16T01:24:44;100818.09;;;12.13;100.00
72896;BME280;61036;53.224;6.554;2022-10-16T01:27:29;100817.50;;;12.10;100.00
72896;BME280;61036;53.224;6.554;2022-10-16T01:29:56;100820.91;;;12.12;100.00
72896;BME280;61036;53.224;6.554;2022-10-16T01:32:38;100812.19;;;12.08;100.00
72896;BME280;61036;53.224;6.554;2022-10-16T01:35:22;100825.59;;;12.10;100.00
72896;BME280;61036;53.224;6.554;2022-10-16T01:37:58;100825.09;;;12.16;100.00
72896;BME280;61036;53.224;6.554;2022-10-16T01:40:27;100828.00;;;12.24;100.00
72896;BME280;61036;53.224;6.554;2022-10-16T01:43:00;100824.25;;;12.16;100.00
72896;BME280;61036;53.224;6.554;2022-10-16T01:45:30;100822.75;;;12.11;100.00
72896;BME280;61036;53.224;6.554;2022-10-16T01:47:58;100825.34;;;12.13;100.00
72896;BME280;61036;53.224;6.554;2022-10-16T01:50:26;100823.09;;;12.18;100.00
72896;BME280;61036;53.224;6.554;2022-10-16T01:52:52;100834.41;;;12.23;100.00
72896;BME280;61036;53.224;6.554;2022-10-16T01:55:32;100818.69;;;12.28;100.00
72896;BME280;61036;53.224;6.554;2022-10-16T01:58:01;100821.50;;;12.27;100.00
72896;BME280;61036;53.224;6.554;2022-10-16T02:00:29;100815.75;;;12.20;100.00
72896;BME280;61036;53.224;6.554;2022-10-16T02:02:55;100824.97;;;12.18;100.00
72896;BME280;61036;53.224;6.554;2022-10-16T02:05:28;100823.84;;;12.31;100.00
72896;BME280;61036;53.224;6.554;2022-10-16T02:07:56;100825.94;;;12.28;100.00
72896;BME280;61036;53.224;6.554;2022-10-16T02:10:23;100826.88;;;12.38;100.00
72896;BME280;61036;53.224;6.554;2022-10-16T02:13:00;100821.00;;;12.33;100.00
72896;BME280;61036;53.224;6.554;2022-10-16T02:15:27;100822.34;;;12.39;100.00
72896;BME280;61036;53.224;6.554;2022-10-16T02:17:55;100824.69;;;12.32;100.00
72896;BME280;61036;53.224;6.554;2022-10-16T02:20:25;100820.88;;;12.34;100.00
72896;BME280;61036;53.224;6.554;2022-10-16T02:22:53;100828.84;;;12.36;100.00
72896;BME280;61036;53.224;6.554;2022-10-16T02:25:25;100822.84;;;12.32;100.00
72896;BME280;61036;53.224;6.554;2022-10-16T02:28:16;100826.97;;;12.48;100.00
72896;BME280;61036;53.224;6.554;2022-10-16T02:30:45;100827.38;;;12.43;100.00
72896;BME280;61036;53.224;6.554;2022-10-16T02:33:14;100819.63;;;12.39;100.00
72896;BME280;61036;53.224;6.554;2022-10-16T02:35:43;100822.06;;;12.42;100.00
72896;BME280;61036;53.224;6.554;2022-10-16T02:38:14;100821.47;;;12.38;100.00
72896;BME280;61036;53.224;6.554;2022-10-16T02:40:41;100813.09;;;12.41;100.00
72896;BME280;61036;53.224;6.554;2022-10-16T02:43:08;100817.91;;;12.49;100.00
72896;BME280;61036;53.224;6.554;2022-10-16T02:45:34;100820.84;;;12.46;100.00
72896;BME280;61036;53.224;6.554;2022-10-16T02:48:00;100827.13;;;12.46;100.00
72896;BME280;61036;53.224;6.554;2022-10-16T02:50:26;100830.19;;;12.42;100.00
72896;BME280;61036;53.224;6.554;2022-10-16T02:52:52;100835.84;;;12.50;100.00
72896;BME280;61036;53.224;6.554;2022-10-16T02:55:18;100837.78;;;12.48;100.00
72896;BME280;61036;53.224;6.554;2022-10-16T02:57:43;100839.66;;;12.47;100.00
72896;BME280;61036;53.224;6.554;2022-10-16T03:00:12;100842.94;;;12.51;100.00
72896;BME280;61036;53.224;6.554;2022-10-16T03:02:38;100834.72;;;12.52;100.00
72896;BME280;61036;53.224;6.554;2022-10-16T03:05:04;100835.50;;;12.43;100.00
72896;BME280;61036;53.224;6.554;2022-10-16T03:07:30;100841.72;;;12.55;100.00
72896;BME280;61036;53.224;6.554;2022-10-16T03:09:56;100847.75;;;12.47;100.00
72896;BME280;61036;53.224;6.554;2022-10-16T03:12:22;100837.91;;;12.57;100.00
72896;BME280;61036;53.224;6.554;2022-10-16T03:14:50;100845.13;;;12.57;100.00
72896;BME280;61036;53.224;6.554;2022-10-16T03:17:16;100837.41;;;12.64;100.00
72896;BME280;61036;53.224;6.554;2022-10-16T03:19:42;100833.09;;;12.61;100.00
72896;BME280;61036;53.224;6.554;2022-10-16T03:22:07;100837.66;;;12.61;100.00
72896;BME280;61036;53.224;6.554;2022-10-16T03:24:33;100837.44;;;12.52;100.00
72896;BME280;61036;53.224;6.554;2022-10-16T03:26:59;100843.53;;;12.54;100.00
72896;BME280;61036;53.224;6.554;2022-10-16T03:29:25;100840.09;;;12.64;100.00
72896;BME280;61036;53.224;6.554;2022-10-16T03:31:52;100850.03;;;12.63;100.00
72896;BME280;61036;53.224;6.554;2022-10-16T03:34:20;100848.47;;;12.61;100.00
72896;BME280;61036;53.224;6.554;2022-10-16T03:36:46;100843.91;;;12.61;100.00
72896;BME280;61036;53.224;6.554;2022-10-16T03:39:12;100843.69;;;12.53;100.00
72896;BME280;61036;53.224;6.554;2022-10-16T03:41:38;100842.84;;;12.52;100.00
72896;BME280;61036;53.224;6.554;2022-10-16T03:44:04;100846.91;;;12.47;100.00
72896;BME280;61036;53.224;6.554;2022-10-16T03:46:30;100848.50;;;12.49;100.00
72896;BME280;61036;53.224;6.554;2022-10-16T03:48:57;100855.78;;;12.38;100.00
72896;BME280;61036;53.224;6.554;2022-10-16T03:51:23;100857.88;;;12.34;100.00
72896;BME280;61036;53.224;6.554;2022-10-16T03:53:49;100861.53;;;12.44;100.00
72896;BME280;61036;53.224;6.554;2022-10-16T03:56:15;100873.09;;;12.46;100.00
72896;BME280;61036;53.224;6.554;2022-10-16T03:58:41;100862.03;;;12.38;100.00
72896;BME280;61036;53.224;6.554;2022-10-16T04:01:08;100864.00;;;12.36;100.00
72896;BME280;61036;53.224;6.554;2022-10-16T04:03:34;100859.59;;;12.35;100.00
72896;BME280;61036;53.224;6.554;2022-10-16T04:06:00;100853.47;;;12.22;100.00
72896;BME280;61036;53.224;6.554;2022-10-16T04:08:26;100858.16;;;12.20;100.00
72896;BME280;61036;53.224;6.554;2022-10-16T04:10:51;100859.00;;;12.09;100.00
72896;BME280;61036;53.224;6.554;2022-10-16T04:13:19;100855.56;;;12.18;100.00
72896;BME280;61036;53.224;6.554;2022-10-16T04:15:45;100865.91;;;12.13;100.00
72896;BME280;61036;53.224;6.554;2022-10-16T04:18:11;100879.66;;;12.10;100.00
72896;BME280;61036;53.224;6.554;2022-10-16T04:20:36;100887.03;;;12.08;100.00
72896;BME280;61036;53.224;6.554;2022-10-16T04:23:03;100881.13;;;12.03;100.00
72896;BME280;61036;53.224;6.554;2022-10-16T04:25:31;100887.38;;;12.03;100.00
72896;BME280;61036;53.224;6.554;2022-10-16T04:27:56;100891.56;;;11.96;100.00
72896;BME280;61036;53.224;6.554;2022-10-16T04:30:23;100895.28;;;12.06;100.00
72896;BME280;61036;53.224;6.554;2022-10-16T04:32:52;100900.53;;;12.08;100.00
72896;BME280;61036;53.224;6.554;2022-10-16T04:35:18;100901.53;;;12.07;100.00
72896;BME280;61036;53.224;6.554;2022-10-16T04:37:44;100911.34;;;12.08;100.00
72896;BME280;61036;53.224;6.554;2022-10-16T04:40:10;100904.72;;;12.12;100.00
72896;BME280;61036;53.224;6.554;2022-10-16T04:42:36;100911.59;;;12.05;100.00
72896;BME280;61036;53.224;6.554;2022-10-16T04:45:03;100916.25;;;12.03;100.00
72896;BME280;61036;53.224;6.554;2022-10-16T04:47:29;100920.22;;;12.10;100.00
72896;BME280;61036;53.224;6.554;2022-10-16T04:49:54;100925.00;;;12.18;100.00
72896;BME280;61036;53.224;6.554;2022-10-16T04:52:22;100931.16;;;12.20;100.00
72896;BME280;61036;53.224;6.554;2022-10-16T04:54:50;100936.56;;;12.31;100.00
72896;BME280;61036;53.224;6.554;2022-10-16T04:57:16;100940.00;;;12.22;100.00
72896;BME280;61036;53.224;6.554;2022-10-16T04:59:41;100937.91;;;12.25;100.00
72896;BME280;61036;53.224;6.554;2022-10-16T05:02:07;100937.06;;;12.25;100.00
72896;BME280;61036;53.224;6.554;2022-10-16T05:04:32;100932.34;;;12.27;100.00
72896;BME280;61036;53.224;6.554;2022-10-16T05:06:58;100924.88;;;12.19;100.00
72896;BME280;61036;53.224;6.554;2022-10-16T05:09:24;100928.19;;;12.23;100.00
72896;BME280;61036;53.224;6.554;2022-10-16T05:11:51;100932.25;;;12.28;100.00
72896;BME280;61036;53.224;6.554;2022-10-16T05:14:17;100934.59;;;12.22;100.00
72896;BME280;61036;53.224;6.554;2022-10-16T05:16:44;100945.53;;;12.31;100.00
72896;BME280;61036;53.224;6.554;2022-10-16T05:19:09;100935.44;;;12.22;100.00
72896;BME280;61036;53.224;6.554;2022-10-16T05:21:35;100944.41;;;12.23;100.00
72896;BME280;61036;53.224;6.554;2022-10-16T05:24:03;100947.84;;;12.13;100.00
72896;BME280;61036;53.224;6.554;2022-10-16T05:26:29;100947.38;;;12.20;100.00
72896;BME280;61036;53.224;6.554;2022-10-16T05:28:55;100942.19;;;12.17;100.00
72896;BME280;61036;53.224;6.554;2022-10-16T05:31:21;100950.81;;;12.22;100.00
72896;BME280;61036;53.224;6.554;2022-10-16T05:33:48;100949.47;;;12.16;100.00
72896;BME280;61036;53.224;6.554;2022-10-16T05:36:14;100947.47;;;12.18;100.00
72896;BME280;61036;53.224;6.554;2022-10-16T05:38:40;100954.50;;;12.09;100.00
72896;BME280;61036;53.224;6.554;2022-10-16T05:41:05;100960.88;;;12.08;100.00
72896;BME280;61036;53.224;6.554;2022-10-16T05:43:32;100952.75;;;12.08;100.00
72896;BME280;61036;53.224;6.554;2022-10-16T05:46:07;100947.09;;;12.11;100.00
72896;BME280;61036;53.224;6.554;2022-10-16T05:48:33;100949.47;;;12.16;100.00
72896;BME280;61036;53.224;6.554;2022-10-16T05:51:04;100957.06;;;12.11;100.00
72896;BME280;61036;53.224;6.554;2022-10-16T05:53:32;100963.31;;;12.11;100.00
72896;BME280;61036;53.224;6.554;2022-10-16T05:55:59;100971.31;;;12.24;100.00
72896;BME280;61036;53.224;6.554;2022-10-16T05:58:28;100971.56;;;12.21;100.00
72896;BME280;61036;53.224;6.554;2022-10-16T06:00:59;100970.00;;;12.19;100.00
72896;BME280;61036;53.224;6.554;2022-10-16T06:03:26;100981.50;;;12.21;100.00
72896;BME280;61036;53.224;6.554;2022-10-16T06:05:51;100981.41;;;12.11;100.00
72896;BME280;61036;53.224;6.554;2022-10-16T06:08:18;100982.25;;;12.11;100.00
72896;BME280;61036;53.224;6.554;2022-10-16T06:10:44;100993.31;;;12.08;100.00
72896;BME280;61036;53.224;6.554;2022-10-16T06:13:11;100997.63;;;12.11;100.00
72896;BME280;61036;53.224;6.554;2022-10-16T06:15:38;100998.84;;;12.07;100.00
72896;BME280;61036;53.224;6.554;2022-10-16T06:18:05;100997.50;;;12.01;100.00
72896;BME280;61036;53.224;6.554;2022-10-16T06:20:30;100992.72;;;12.16;100.00
72896;BME280;61036;53.224;6.554;2022-10-16T06:22:56;100997.88;;;12.19;100.00
72896;BME280;61036;53.224;6.554;2022-10-16T06:25:22;101001.44;;;12.20;100.00
72896;BME280;61036;53.224;6.554;2022-10-16T06:27:48;101000.09;;;12.25;100.00
72896;BME280;61036;53.224;6.554;2022-10-16T06:30:14;100996.41;;;12.26;100.00
72896;BME280;61036;53.224;6.554;2022-10-16T06:32:39;100992.69;;;12.27;100.00
72896;BME280;61036;53.224;6.554;2022-10-16T06:35:05;100995.19;;;12.30;100.00
72896;BME280;61036;53.224;6.554;2022-10-16T06:37:34;101002.91;;;12.35;100.00
72896;BME280;61036;53.224;6.554;2022-10-16T06:39:59;101010.28;;;12.33;100.00
72896;BME280;61036;53.224;6.554;2022-10-16T06:42:25;101015.69;;;12.33;100.00
72896;BME280;61036;53.224;6.554;2022-10-16T06:44:51;101011.53;;;12.40;100.00
72896;BME280;61036;53.224;6.554;2022-10-16T06:47:17;101005.63;;;12.35;100.00
72896;BME280;61036;53.224;6.554;2022-10-16T06:49:43;101019.38;;;12.32;100.00
72896;BME280;61036;53.224;6.554;2022-10-16T06:52:08;101028.97;;;12.47;100.00
72896;BME280;61036;53.224;6.554;2022-10-16T06:54:35;101035.50;;;12.45;100.00
72896;BME280;61036;53.224;6.554;2022-10-16T06:57:03;101020.50;;;12.52;100.00
72896;BME280;61036;53.224;6.554;2022-10-16T06:59:28;101028.38;;;12.55;100.00
72896;BME280;61036;53.224;6.554;2022-10-16T07:01:54;101030.94;;;12.56;100.00
72896;BME280;61036;53.224;6.554;2022-10-16T07:04:20;101028.25;;;12.56;100.00
72896;BME280;61036;53.224;6.554;2022-10-16T07:06:46;101044.97;;;12.73;100.00
72896;BME280;61036;53.224;6.554;2022-10-16T07:09:12;101054.56;;;12.66;100.00
72896;BME280;61036;53.224;6.554;2022-10-16T07:11:39;101058.75;;;12.58;100.00
72896;BME280;61036;53.224;6.554;2022-10-16T07:14:14;101057.16;;;12.67;100.00
72896;BME280;61036;53.224;6.554;2022-10-16T07:16:40;101070.78;;;12.66;100.00
72896;BME280;61036;53.224;6.554;2022-10-16T07:19:06;101075.72;;;12.83;100.00
72896;BME280;61036;53.224;6.554;2022-10-16T07:21:34;101078.78;;;12.78;100.00
72896;BME280;61036;53.224;6.554;2022-10-16T07:24:07;101098.59;;;12.79;100.00
72896;BME280;61036;53.224;6.554;2022-10-16T07:26:35;101086.78;;;12.80;100.00
72896;BME280;61036;53.224;6.554;2022-10-16T07:29:01;101104.63;;;12.82;100.00
72896;BME280;61036;53.224;6.554;2022-10-16T07:31:27;101093.81;;;12.94;100.00
72896;BME280;61036;53.224;6.554;2022-10-16T07:33:54;101105.94;;;12.99;100.00
72896;BME280;61036;53.224;6.554;2022-10-16T07:36:20;101118.78;;;13.09;100.00
72896;BME280;61036;53.224;6.554;2022-10-16T07:38:46;101125.91;;;12.98;100.00
72896;BME280;61036;53.224;6.554;2022-10-16T07:41:15;101118.63;;;12.99;100.00
72896;BME280;61036;53.224;6.554;2022-10-16T07:43:49;101112.25;;;12.89;100.00
72896;BME280;61036;53.224;6.554;2022-10-16T07:46:15;101125.03;;;12.87;100.00
72896;BME280;61036;53.224;6.554;2022-10-16T07:48:41;101127.00;;;12.96;100.00
72896;BME280;61036;53.224;6.554;2022-10-16T07:51:21;101125.41;;;12.93;100.00
72896;BME280;61036;53.224;6.554;2022-10-16T07:53:49;101128.34;;;12.90;100.00
72896;BME280;61036;53.224;6.554;2022-10-16T07:56:16;101145.09;;;12.84;100.00
72896;BME280;61036;53.224;6.554;2022-10-16T07:58:42;101131.31;;;12.76;100.00
72896;BME280;61036;53.224;6.554;2022-10-16T08:01:10;101134.66;;;12.79;100.00
72896;BME280;61036;53.224;6.554;2022-10-16T08:03:36;101143.25;;;12.96;100.00
72896;BME280;61036;53.224;6.554;2022-10-16T08:06:03;101132.41;;;12.96;100.00
72896;BME280;61036;53.224;6.554;2022-10-16T08:08:29;101138.81;;;12.84;100.00
72896;BME280;61036;53.224;6.554;2022-10-16T08:10:55;101145.34;;;13.48;100.00
72896;BME280;61036;53.224;6.554;2022-10-16T08:13:21;101155.06;;;13.29;100.00
72896;BME280;61036;53.224;6.554;2022-10-16T08:15:47;101150.72;;;13.92;100.00
72896;BME280;61036;53.224;6.554;2022-10-16T08:18:15;101151.75;;;13.80;100.00
72896;BME280;61036;53.224;6.554;2022-10-16T08:20:42;101162.13;;;14.07;100.00
72896;BME280;61036;53.224;6.554;2022-10-16T08:23:10;101168.38;;;14.18;100.00
72896;BME280;61036;53.224;6.554;2022-10-16T08:25:36;101176.84;;;14.57;100.00
72896;BME280;61036;53.224;6.554;2022-10-16T08:28:05;101188.72;;;15.08;100.00
72896;BME280;61036;53.224;6.554;2022-10-16T08:30:34;101191.44;;;15.48;100.00
72896;BME280;61036;53.224;6.554;2022-10-16T08:33:00;101191.22;;;15.00;100.00
72896;BME280;61036;53.224;6.554;2022-10-16T08:35:27;101178.50;;;15.71;100.00
72896;BME280;61036;53.224;6.554;2022-10-16T08:37:52;101183.28;;;16.37;100.00
72896;BME280;61036;53.224;6.554;2022-10-16T08:40:23;101183.06;;;18.87;100.00
72896;BME280;61036;53.224;6.554;2022-10-16T08:43:00;101171.53;;;16.46;100.00
72896;BME280;61036;53.224;6.554;2022-10-16T08:50:50;101207.72;;;15.39;100.00
72896;BME280;61036;53.224;6.554;2022-10-16T08:53:25;101212.25;;;15.28;100.00
72896;BME280;61036;53.224;6.554;2022-10-16T08:55:54;101219.84;;;14.83;100.00
72896;BME280;61036;53.224;6.554;2022-10-16T08:58:29;101221.91;;;14.91;100.00
72896;BME280;61036;53.224;6.554;2022-10-16T09:01:00;101220.97;;;15.01;100.00
72896;BME280;61036;53.224;6.554;2022-10-16T09:17:26;101255.50;;;14.90;100.00
72896;BME280;61036;53.224;6.554;2022-10-16T09:25:35;101266.63;;;15.07;100.00
72896;BME280;61036;53.224;6.554;2022-10-16T09:28:04;101269.13;;;15.20;100.00
72896;BME280;61036;53.224;6.554;2022-10-16T09:30:29;101272.97;;;15.48;100.00
72896;BME280;61036;53.224;6.554;2022-10-16T09:32:58;101278.84;;;15.74;100.00
72896;BME280;61036;53.224;6.554;2022-10-16T09:35:35;101280.53;;;16.26;100.00
72896;BME280;61036;53.224;6.554;2022-10-16T09:38:01;101279.81;;;16.62;100.00
72896;BME280;61036;53.224;6.554;2022-10-16T09:40:33;101287.59;;;16.77;100.00
72896;BME280;61036;53.224;6.554;2022-10-16T09:45:58;101283.28;;;18.33;100.00
72896;BME280;61036;53.224;6.554;2022-10-16T09:48:30;101288.59;;;17.89;100.00
72896;BME280;61036;53.224;6.554;2022-10-16T09:50:59;101289.09;;;18.02;100.00
72896;BME280;61036;53.224;6.554;2022-10-16T09:53:39;101294.72;;;19.26;100.00
72896;BME280;61036;53.224;6.554;2022-10-16T09:56:05;101299.69;;;19.91;100.00
72896;BME280;61036;53.224;6.554;2022-10-16T09:58:32;101278.66;;;22.50;100.00
72896;BME280;61036;53.224;6.554;2022-10-16T10:00:59;101295.41;;;23.77;98.77
72896;BME280;61036;53.224;6.554;2022-10-16T10:03:38;101293.56;;;22.33;100.00
72896;BME280;61036;53.224;6.554;2022-10-16T10:16:51;101316.47;;;16.29;100.00
72896;BME280;61036;53.224;6.554;2022-10-16T10:19:22;101320.63;;;16.23;100.00
72896;BME280;61036;53.224;6.554;2022-10-16T10:21:51;101327.94;;;16.23;100.00
72896;BME280;61036;53.224;6.554;2022-10-16T10:24:18;101330.72;;;16.52;100.00
72896;BME280;61036;53.224;6.554;2022-10-16T10:27:04;101334.97;;;16.35;100.00
72896;BME280;61036;53.224;6.554;2022-10-16T10:38:11;101353.06;;;16.56;100.00
72896;BME280;61036;53.224;6.554;2022-10-16T10:40:50;101357.69;;;17.13;100.00
72896;BME280;61036;53.224;6.554;2022-10-16T10:43:27;101359.72;;;16.82;100.00
72896;BME280;61036;53.224;6.554;2022-10-16T10:46:03;101355.53;;;17.17;100.00
72896;BME280;61036;53.224;6.554;2022-10-16T10:48:58;101366.00;;;17.22;100.00
72896;BME280;61036;53.224;6.554;2022-10-16T10:54:13;101368.16;;;17.18;100.00
72896;BME280;61036;53.224;6.554;2022-10-16T10:56:47;101375.03;;;17.22;100.00
72896;BME280;61036;53.224;6.554;2022-10-16T11:05:12;101378.75;;;17.11;100.00
72896;BME280;61036;53.224;6.554;2022-10-16T11:07:57;101396.38;;;16.78;100.00
72896;BME280;61036;53.224;6.554;2022-10-16T11:10:47;101398.41;;;16.76;100.00
72896;BME280;61036;53.224;6.554;2022-10-16T11:16:21;101389.25;;;17.16;100.00
72896;BME280;61036;53.224;6.554;2022-10-16T11:22:01;101393.81;;;17.25;100.00
72896;BME280;61036;53.224;6.554;2022-10-16T11:24:42;101387.66;;;17.33;100.00
72896;BME280;61036;53.224;6.554;2022-10-16T11:27:15;101389.81;;;17.39;100.00
72896;BME280;61036;53.224;6.554;2022-10-16T11:29:49;101392.94;;;17.54;100.00
72896;BME280;61036;53.224;6.554;2022-10-16T11:32:25;101404.97;;;17.42;100.00
72896;BME280;61036;53.224;6.554;2022-10-16T11:34:58;101407.88;;;17.30;100.00
72896;BME280;61036;53.224;6.554;2022-10-16T11:37:30;101410.19;;;17.25;100.00
72896;BME280;61036;53.224;6.554;2022-10-16T11:40:28;101409.16;;;17.46;100.00
72896;BME280;61036;53.224;6.554;2022-10-16T11:45:39;101422.75;;;17.55;100.00
72896;BME280;61036;53.224;6.554;2022-10-16T11:56:51;101420.31;;;17.62;100.00
72896;BME280;61036;53.224;6.554;2022-10-16T11:59:32;101423.22;;;17.31;100.00
72896;BME280;61036;53.224;6.554;2022-10-16T12:02:31;101433.69;;;17.46;100.00
72896;BME280;61036;53.224;6.554;2022-10-16T12:08:09;101457.81;;;17.41;100.00
72896;BME280;61036;53.224;6.554;2022-10-16T12:10:37;101456.94;;;17.40;100.00
72896;BME280;61036;53.224;6.554;2022-10-16T12:15:52;101467.28;;;17.36;100.00
72896;BME280;61036;53.224;6.554;2022-10-16T12:18:28;101477.59;;;17.13;100.00
72896;BME280;61036;53.224;6.554;2022-10-16T12:20:56;101476.75;;;17.13;100.00
72896;BME280;61036;53.224;6.554;2022-10-16T12:23:30;101477.75;;;17.41;100.00
72896;BME280;61036;53.224;6.554;2022-10-16T12:26:00;101482.94;;;17.54;100.00
72896;BME280;61036;53.224;6.554;2022-10-16T12:28:29;101485.22;;;17.49;100.00
72896;BME280;61036;53.224;6.554;2022-10-16T12:31:02;101489.38;;;17.33;100.00
72896;BME280;61036;53.224;6.554;2022-10-16T12:33:30;101491.94;;;17.35;100.00
72896;BME280;61036;53.224;6.554;2022-10-16T12:35:58;101489.38;;;17.43;100.00
72896;BME280;61036;53.224;6.554;2022-10-16T12:38:33;101492.97;;;17.24;100.00
72896;BME280;61036;53.224;6.554;2022-10-16T12:41:09;101496.97;;;17.20;100.00
72896;BME280;61036;53.224;6.554;2022-10-16T12:43:43;101495.13;;;17.30;100.00
72896;BME280;61036;53.224;6.554;2022-10-16T12:48:39;101503.06;;;16.83;100.00
72896;BME280;61036;53.224;6.554;2022-10-16T12:54:01;101520.44;;;16.52;100.00
72896;BME280;61036;53.224;6.554;2022-10-16T13:02:41;101529.09;;;16.36;100.00
72896;BME280;61036;53.224;6.554;2022-10-16T13:08:17;101537.78;;;16.60;100.00
72896;BME280;61036;53.224;6.554;2022-10-16T13:16:29;101547.16;;;16.67;100.00
72896;BME280;61036;53.224;6.554;2022-10-16T13:21:50;101550.31;;;16.42;100.00
72896;BME280;61036;53.224;6.554;2022-10-16T13:29:30;101560.03;;;16.65;100.00
72896;BME280;61036;53.224;6.554;2022-10-16T13:31:58;101561.44;;;16.60;100.00
72896;BME280;61036;53.224;6.554;2022-10-16T13:34:24;101557.16;;;16.36;100.00
72896;BME280;61036;53.224;6.554;2022-10-16T13:36:52;101567.09;;;16.16;100.00
72896;BME280;61036;53.224;6.554;2022-10-16T13:39:22;101567.69;;;15.99;100.00
72896;BME280;61036;53.224;6.554;2022-10-16T13:42:15;101572.75;;;16.04;100.00
72896;BME280;61036;53.224;6.554;2022-10-16T13:44:46;101570.97;;;16.44;100.00
72896;BME280;61036;53.224;6.554;2022-10-16T13:47:20;101579.63;;;16.80;100.00
72896;BME280;61036;53.224;6.554;2022-10-16T13:50:03;101589.59;;;16.70;100.00
72896;BME280;61036;53.224;6.554;2022-10-16T13:52:29;101588.53;;;16.82;100.00
72896;BME280;61036;53.224;6.554;2022-10-16T13:54:55;101584.06;;;16.81;100.00
72896;BME280;61036;53.224;6.554;2022-10-16T13:57:24;101581.06;;;16.84;100.00
72896;BME280;61036;53.224;6.554;2022-10-16T13:59:50;101584.50;;;16.86;100.00
72896;BME280;61036;53.224;6.554;2022-10-16T14:02:27;101602.00;;;16.84;100.00
72896;BME280;61036;53.224;6.554;2022-10-16T14:04:54;101593.00;;;16.93;100.00
72896;BME280;61036;53.224;6.554;2022-10-16T14:07:29;101600.31;;;16.92;100.00
72896;BME280;61036;53.224;6.554;2022-10-16T14:10:00;101595.44;;;16.96;100.00
72896;BME280;61036;53.224;6.554;2022-10-16T14:12:28;101599.53;;;16.81;100.00
72896;BME280;61036;53.224;6.554;2022-10-16T14:14:55;101605.50;;;16.75;100.00
72896;BME280;61036;53.224;6.554;2022-10-16T14:17:28;101605.47;;;16.65;100.00
72896;BME280;61036;53.224;6.554;2022-10-16T14:19:59;101596.06;;;16.48;100.00
72896;BME280;61036;53.224;6.554;2022-10-16T14:24:53;101601.56;;;16.58;100.00
72896;BME280;61036;53.224;6.554;2022-10-16T14:27:56;101608.00;;;16.57;100.00
72896;BME280;61036;53.224;6.554;2022-10-16T14:30:22;101618.25;;;16.43;100.00
72896;BME280;61036;53.224;6.554;2022-10-16T14:35:39;101620.19;;;16.11;100.00
72896;BME280;61036;53.224;6.554;2022-10-16T14:38:18;101623.50;;;16.14;100.00
72896;BME280;61036;53.224;6.554;2022-10-16T14:40:47;101635.25;;;16.15;100.00
72896;BME280;61036;53.224;6.554;2022-10-16T14:43:20;101641.34;;;16.07;100.00
72896;BME280;61036;53.224;6.554;2022-10-16T14:45:52;101647.78;;;16.06;100.00
72896;BME280;61036;53.224;6.554;2022-10-16T14:48:18;101656.31;;;15.81;100.00
72896;BME280;61036;53.224;6.554;2022-10-16T14:50:45;101654.47;;;15.70;100.00